createdAt,value
2023-05-16T00:01:53.635Z,2.00
2023-05-16T00:04:21.414Z,1.80
2023-05-16T00:06:49.005Z,2.03
2023-05-16T00:09:16.809Z,1.58
2023-05-16T00:11:45.003Z,1.13
2023-05-16T00:14:12.701Z,1.25
2023-05-16T00:16:41.758Z,1.45
2023-05-16T00:19:10.411Z,1.25
2023-05-16T00:21:38.054Z,0.93
2023-05-16T00:24:06.354Z,1.80
2023-05-16T00:26:33.859Z,1.05
2023-05-16T00:29:02.318Z,1.20
2023-05-16T00:31:29.933Z,0.95
2023-05-16T00:33:57.498Z,1.02
2023-05-16T00:36:25.136Z,1.25
2023-05-16T00:38:52.620Z,1.65
2023-05-16T00:41:21.040Z,1.38
2023-05-16T00:43:48.613Z,0.98
2023-05-16T00:46:16.323Z,1.33
2023-05-16T00:48:43.860Z,1.58
2023-05-16T00:51:11.933Z,1.70
2023-05-16T00:53:39.452Z,1.13
2023-05-16T00:56:07.799Z,1.05
2023-05-16T00:58:35.388Z,2.20
2023-05-16T01:01:03.686Z,2.00
2023-05-16T01:03:31.682Z,1.48
2023-05-16T01:05:59.764Z,1.90
2023-05-16T01:08:27.309Z,1.40
2023-05-16T01:11:20.036Z,1.17
2023-05-16T01:16:47.275Z,1.45
2023-05-16T01:19:33.809Z,0.82
2023-05-16T01:22:07.681Z,1.60
2023-05-16T01:24:43.964Z,2.13
2023-05-16T01:27:12.963Z,1.08
2023-05-16T01:29:40.450Z,1.20
2023-05-16T01:32:08.216Z,2.03
2023-05-16T01:34:35.813Z,1.20
2023-05-16T01:37:22.662Z,1.00
2023-05-16T01:40:07.828Z,1.52
2023-05-16T01:42:40.668Z,1.92
2023-05-16T01:45:16.026Z,2.53
2023-05-16T01:47:48.684Z,1.40
2023-05-16T01:50:17.764Z,1.70
2023-05-16T01:52:56.456Z,1.08
2023-05-16T01:55:35.933Z,4.30
2023-05-16T01:58:05.846Z,3.05
2023-05-16T02:00:33.338Z,1.48
2023-05-16T02:03:00.939Z,1.65
2023-05-16T02:05:28.729Z,1.45
2023-05-16T02:07:56.613Z,1.05
2023-05-16T02:10:25.028Z,1.35
2023-05-16T02:12:53.083Z,1.40
2023-05-16T02:15:21.234Z,1.70
2023-05-16T02:17:48.909Z,1.67
2023-05-16T02:20:16.963Z,1.20
2023-05-16T02:22:47.018Z,2.38
2023-05-16T02:25:15.733Z,1.55
2023-05-16T02:27:44.008Z,1.25
2023-05-16T02:30:12.826Z,3.30
2023-05-16T02:32:41.397Z,1.98
2023-05-16T02:35:09.096Z,1.40
2023-05-16T02:37:36.584Z,1.30
2023-05-16T02:40:05.755Z,1.27
2023-05-16T02:42:33.252Z,1.80
2023-05-16T02:45:00.922Z,1.08
2023-05-16T02:47:29.256Z,1.60
2023-05-16T02:49:56.782Z,3.08
2023-05-16T02:52:24.232Z,1.42
2023-05-16T02:55:09.204Z,1.75
2023-05-16T02:57:37.540Z,3.33
2023-05-16T03:00:06.131Z,0.98
2023-05-16T03:02:33.820Z,1.60
2023-05-16T03:05:01.575Z,1.85
2023-05-16T03:07:29.086Z,1.38
2023-05-16T03:09:56.540Z,1.30
2023-05-16T03:12:24.083Z,1.17
2023-05-16T03:14:51.793Z,1.35
2023-05-16T03:17:19.412Z,1.50
2023-05-16T03:19:47.076Z,1.50
2023-05-16T03:22:14.536Z,1.20
2023-05-16T03:24:42.064Z,1.20
2023-05-16T03:27:09.653Z,1.65
2023-05-16T03:29:37.156Z,1.17
2023-05-16T03:32:05.155Z,1.20
2023-05-16T03:34:32.739Z,2.17
2023-05-16T03:37:00.458Z,2.47
2023-05-16T03:39:28.022Z,1.30
2023-05-16T03:41:57.143Z,1.80
2023-05-16T03:44:24.694Z,1.48
2023-05-16T03:46:52.937Z,2.00
2023-05-16T03:49:21.988Z,2.55
2023-05-16T03:51:49.468Z,2.05
2023-05-16T03:54:16.952Z,1.35
2023-05-16T03:56:44.412Z,2.05
2023-05-16T03:59:12.483Z,1.40
2023-05-16T04:01:40.179Z,1.88
2023-05-16T04:04:08.062Z,1.92
2023-05-16T04:06:35.682Z,2.72
2023-05-16T04:09:03.205Z,1.50
2023-05-16T04:11:30.745Z,1.38
2023-05-16T04:13:58.926Z,1.67
2023-05-16T04:16:26.554Z,1.70
2023-05-16T04:18:54.176Z,1.30
2023-05-16T04:21:21.745Z,1.30
2023-05-16T04:23:49.713Z,1.85
2023-05-16T04:26:17.185Z,1.80
2023-05-16T04:28:44.800Z,1.65
2023-05-16T04:31:14.131Z,1.50
2023-05-16T04:33:41.734Z,1.27
2023-05-16T04:36:09.573Z,1.08
2023-05-16T04:38:37.790Z,1.15
2023-05-16T04:41:05.330Z,2.67
2023-05-16T04:43:32.972Z,2.00
2023-05-16T04:46:00.597Z,1.23
2023-05-16T04:48:28.367Z,1.75
2023-05-16T04:50:55.955Z,1.35
2023-05-16T04:53:23.557Z,1.25
2023-05-16T04:55:51.162Z,2.38
2023-05-16T04:58:18.648Z,3.38
2023-05-16T05:00:46.131Z,1.13
2023-05-16T05:03:13.724Z,1.50
2023-05-16T05:05:41.308Z,1.33
2023-05-16T05:08:09.694Z,1.45
2023-05-16T05:10:37.513Z,2.90
2023-05-16T05:13:04.999Z,1.40
2023-05-16T05:15:32.517Z,1.90
2023-05-16T05:18:00.233Z,1.50
2023-05-16T05:20:28.568Z,1.90
2023-05-16T05:22:56.049Z,1.13
2023-05-16T05:25:23.613Z,1.88
2023-05-16T05:27:51.142Z,1.10
2023-05-16T05:30:18.666Z,1.48
2023-05-16T05:32:46.252Z,0.95
2023-05-16T05:35:13.775Z,2.25
2023-05-16T05:37:41.415Z,0.80
2023-05-16T05:40:09.320Z,1.40
2023-05-16T05:42:36.810Z,0.88
2023-05-16T05:45:04.987Z,1.48
2023-05-16T05:47:32.677Z,1.80
2023-05-16T05:50:00.632Z,1.40
2023-05-16T05:52:28.971Z,1.35
2023-05-16T05:54:56.571Z,0.90
2023-05-16T05:57:24.148Z,1.45
2023-05-16T05:59:51.829Z,2.17
2023-05-16T06:02:19.407Z,2.75
2023-05-16T06:04:47.008Z,1.52
2023-05-16T06:07:16.077Z,1.63
2023-05-16T06:09:44.015Z,0.95
2023-05-16T06:12:11.620Z,0.98
2023-05-16T06:14:39.124Z,0.70
2023-05-16T06:17:06.859Z,1.05
2023-05-16T06:19:34.540Z,1.65
2023-05-16T06:22:02.123Z,1.05
2023-05-16T06:24:30.545Z,1.77
2023-05-16T06:26:59.297Z,0.73
2023-05-16T06:29:26.828Z,1.05
2023-05-16T06:31:54.555Z,0.90
2023-05-16T06:34:28.275Z,0.70
2023-05-16T06:36:56.414Z,0.57
2023-05-16T06:39:23.945Z,0.90
2023-05-16T06:41:52.407Z,1.67
2023-05-16T06:44:21.387Z,1.67
2023-05-16T06:46:49.044Z,0.80
2023-05-16T06:49:16.655Z,1.15
2023-05-16T06:51:44.190Z,0.55
2023-05-16T06:54:11.860Z,1.15
2023-05-16T06:56:39.434Z,0.70
2023-05-16T06:59:06.998Z,0.52
2023-05-16T07:01:34.626Z,0.52
2023-05-16T07:04:02.333Z,0.80
2023-05-16T07:06:29.979Z,0.65
2023-05-16T07:08:57.587Z,0.80
2023-05-16T07:11:25.559Z,0.60
2023-05-16T07:13:53.210Z,0.45
2023-05-16T07:16:20.855Z,0.60
2023-05-16T07:18:48.488Z,0.60
2023-05-16T07:21:16.498Z,0.65
2023-05-16T07:23:44.230Z,0.60
2023-05-16T07:26:11.944Z,0.50
2023-05-16T07:28:39.631Z,0.85
2023-05-16T07:31:08.353Z,0.63
2023-05-16T07:33:36.025Z,0.60
2023-05-16T07:36:15.401Z,1.63
2023-05-16T07:38:45.097Z,0.52
2023-05-16T07:41:12.880Z,1.23
2023-05-16T07:43:40.600Z,0.90
2023-05-16T07:46:08.218Z,0.50
2023-05-16T07:48:35.991Z,0.40
2023-05-16T07:51:03.632Z,0.38
2023-05-16T07:53:31.169Z,0.50
2023-05-16T07:55:58.898Z,0.60
2023-05-16T07:58:26.467Z,1.17
2023-05-16T08:00:54.051Z,0.65
2023-05-16T08:03:21.894Z,0.93
2023-05-16T08:05:50.233Z,0.60
2023-05-16T08:08:17.807Z,1.65
2023-05-16T08:10:45.428Z,1.05
2023-05-16T08:13:13.055Z,0.40
2023-05-16T08:15:40.728Z,0.80
2023-05-16T08:18:14.048Z,0.40
2023-05-16T08:20:42.406Z,0.60
2023-05-16T08:23:10.763Z,0.50
2023-05-16T08:25:38.448Z,0.40
2023-05-16T08:28:06.024Z,0.60
2023-05-16T08:30:33.631Z,0.60
2023-05-16T08:33:04.823Z,0.47
2023-05-16T08:35:32.683Z,1.45
2023-05-16T08:38:00.491Z,0.60
2023-05-16T08:40:29.299Z,0.55
2023-05-16T08:42:57.223Z,0.50
2023-05-16T08:45:25.197Z,0.47
2023-05-16T08:47:56.170Z,0.75
2023-05-16T08:50:26.255Z,0.50
2023-05-16T08:52:54.564Z,0.40
2023-05-16T08:55:23.026Z,0.40
2023-05-16T08:57:52.180Z,0.50
2023-05-16T09:00:20.271Z,0.75
2023-05-16T09:02:48.386Z,0.40
2023-05-16T09:05:18.256Z,0.40
2023-05-16T09:07:46.999Z,0.50
2023-05-16T09:10:14.920Z,0.57
2023-05-16T09:12:43.618Z,0.57
2023-05-16T09:15:12.671Z,0.55
2023-05-16T09:17:43.004Z,0.73
2023-05-16T09:20:15.553Z,0.40
2023-05-16T09:22:53.095Z,0.93
2023-05-16T09:25:30.265Z,0.80
2023-05-16T09:28:01.413Z,0.57
2023-05-16T09:30:34.935Z,0.47
2023-05-16T09:33:03.149Z,0.57
2023-05-16T09:35:44.070Z,0.40
2023-05-16T09:38:19.303Z,0.52
2023-05-16T09:40:47.437Z,0.70
2023-05-16T09:43:18.744Z,0.40
2023-05-16T09:45:48.912Z,0.63
2023-05-16T09:48:17.986Z,1.05
2023-05-16T09:50:54.586Z,0.50
2023-05-16T09:53:29.669Z,0.40
2023-05-16T09:56:07.703Z,0.50
2023-05-16T09:58:38.038Z,0.70
2023-05-16T10:01:07.193Z,0.40
2023-05-16T10:03:40.995Z,0.63
2023-05-16T10:06:09.507Z,0.68
2023-05-16T10:08:38.096Z,0.47
2023-05-16T10:11:07.006Z,0.60
2023-05-16T10:13:37.780Z,0.30
2023-05-16T10:16:13.420Z,0.50
2023-05-16T10:18:42.027Z,0.70
2023-05-16T10:21:14.920Z,0.40
2023-05-16T10:23:44.252Z,0.50
2023-05-16T10:26:14.654Z,0.88
2023-05-16T10:28:43.056Z,0.40
2023-05-16T10:31:12.302Z,0.60
2023-05-16T10:33:40.817Z,0.55
2023-05-16T10:36:13.041Z,0.60
2023-05-16T10:41:09.953Z,0.77
2023-05-16T10:43:37.763Z,0.57
2023-05-16T10:46:09.650Z,0.55
2023-05-16T10:51:24.840Z,0.40
2023-05-16T10:53:53.472Z,0.50
2023-05-16T10:56:28.673Z,0.40
2023-05-16T10:58:56.849Z,0.50
2023-05-16T11:01:24.676Z,0.50
2023-05-16T11:04:01.745Z,0.40
2023-05-16T11:06:42.605Z,0.50
2023-05-16T11:09:13.576Z,0.47
2023-05-16T11:11:48.954Z,0.65
2023-05-16T11:14:37.288Z,0.40
2023-05-16T11:17:14.158Z,0.40
2023-05-16T11:19:43.374Z,0.77
2023-05-16T11:22:21.823Z,0.50
2023-05-16T11:25:00.425Z,0.50
2023-05-16T11:27:36.645Z,0.50
2023-05-16T11:30:07.044Z,0.22
2023-05-16T11:32:36.639Z,0.32
2023-05-16T11:35:05.782Z,0.40
2023-05-16T11:37:33.337Z,0.40
2023-05-16T11:40:07.085Z,0.50
2023-05-16T11:42:41.531Z,0.35
2023-05-16T11:45:21.494Z,0.40
2023-05-16T11:47:50.761Z,0.50
2023-05-16T11:50:20.847Z,0.55
2023-05-16T11:52:50.314Z,0.57
2023-05-16T11:55:28.353Z,0.70
2023-05-16T11:58:01.046Z,0.40
2023-05-16T12:00:28.989Z,0.40
2023-05-16T12:03:04.592Z,0.88
2023-05-16T12:05:34.051Z,0.50
2023-05-16T12:08:02.816Z,0.50
2023-05-16T12:10:34.183Z,0.50
2023-05-16T12:13:03.393Z,0.50
2023-05-16T12:15:31.530Z,0.40
2023-05-16T12:17:59.775Z,0.32
2023-05-16T12:20:27.809Z,0.43
2023-05-16T12:22:59.151Z,0.50
2023-05-16T12:25:36.377Z,0.43
2023-05-16T12:28:05.117Z,0.65
2023-05-16T12:30:33.804Z,0.40
2023-05-16T12:33:05.980Z,0.93
2023-05-16T12:35:36.732Z,0.63
2023-05-16T12:38:09.243Z,0.45
2023-05-16T12:40:41.774Z,0.93
2023-05-16T12:43:15.625Z,0.50
2023-05-16T12:45:44.409Z,0.60
2023-05-16T12:48:16.115Z,0.70
2023-05-16T12:50:45.709Z,0.93
2023-05-16T12:53:14.732Z,0.50
2023-05-16T12:55:43.472Z,0.77
2023-05-16T12:58:12.551Z,0.80
2023-05-16T13:00:40.930Z,0.30
2023-05-16T13:03:08.839Z,0.40
2023-05-16T13:05:36.769Z,0.50
2023-05-16T13:08:04.820Z,0.30
2023-05-16T13:10:32.434Z,0.75
2023-05-16T13:13:00.305Z,0.40
2023-05-16T13:15:28.634Z,0.30
2023-05-16T13:17:56.555Z,0.50
2023-05-16T13:20:24.756Z,0.98
2023-05-16T13:22:52.372Z,0.40
2023-05-16T13:25:19.994Z,0.50
2023-05-16T13:27:49.415Z,0.50
2023-05-16T13:30:17.063Z,0.50
2023-05-16T13:32:44.718Z,0.40
2023-05-16T13:35:12.371Z,0.50
2023-05-16T13:37:41.389Z,0.60
2023-05-16T13:40:10.261Z,0.55
2023-05-16T13:42:39.026Z,0.70
2023-05-16T13:45:09.042Z,0.40
2023-05-16T13:47:36.771Z,0.52
2023-05-16T13:50:09.074Z,0.70
2023-05-16T13:55:08.103Z,0.82
2023-05-16T13:57:35.913Z,0.60
2023-05-16T14:02:42.730Z,0.73
2023-05-16T14:05:10.631Z,0.40
2023-05-16T14:07:38.223Z,0.88
2023-05-16T14:10:06.959Z,0.43
2023-05-16T14:12:34.752Z,0.40
2023-05-16T14:15:02.357Z,0.35
2023-05-16T14:17:29.955Z,0.40
2023-05-16T14:19:57.546Z,0.30
2023-05-16T14:22:25.227Z,0.40
2023-05-16T14:24:52.753Z,0.50
2023-05-16T14:27:20.357Z,0.35
2023-05-16T14:29:48.972Z,0.40
2023-05-16T14:32:16.703Z,1.08
2023-05-16T14:34:44.576Z,0.40
2023-05-16T14:37:12.185Z,0.30
2023-05-16T14:39:39.753Z,0.40
2023-05-16T14:42:08.789Z,0.40
2023-05-16T14:44:36.643Z,0.30
2023-05-16T14:47:05.063Z,0.40
2023-05-16T14:49:33.048Z,0.40
2023-05-16T14:52:00.638Z,0.40
2023-05-16T14:54:28.134Z,0.30
2023-05-16T14:56:56.602Z,0.32
2023-05-16T14:59:24.139Z,0.40
2023-05-16T15:01:51.738Z,0.43
2023-05-16T15:04:19.486Z,1.25
2023-05-16T15:06:47.028Z,0.52
2023-05-16T15:09:14.569Z,0.30
2023-05-16T15:11:42.113Z,0.30
2023-05-16T15:14:09.725Z,0.40
2023-05-16T15:16:37.328Z,0.30
2023-05-16T15:19:05.101Z,0.30
2023-05-16T15:21:33.197Z,0.40
2023-05-16T15:24:00.881Z,0.30
2023-05-16T15:26:28.495Z,0.40
2023-05-16T15:28:56.937Z,0.40
2023-05-16T15:31:24.595Z,0.40
2023-05-16T15:33:52.223Z,0.47
2023-05-16T15:36:19.861Z,0.88
2023-05-16T15:38:47.579Z,0.45
2023-05-16T15:41:31.397Z,0.60
2023-05-16T15:44:03.439Z,0.32
2023-05-16T15:46:32.963Z,0.40
2023-05-16T15:49:00.832Z,0.60
2023-05-16T15:51:28.385Z,0.38
2023-05-16T15:53:55.920Z,0.28
2023-05-16T15:56:23.502Z,0.60
2023-05-16T15:58:51.138Z,0.50
2023-05-16T16:01:18.819Z,1.13
2023-05-16T16:03:46.644Z,0.50
2023-05-16T16:06:14.513Z,0.70
2023-05-16T16:08:42.157Z,1.50
2023-05-16T16:11:09.688Z,0.47
2023-05-16T16:13:38.052Z,0.70
2023-05-16T16:16:05.922Z,0.60
2023-05-16T16:18:34.516Z,0.50
2023-05-16T16:21:02.151Z,0.52
2023-05-16T16:23:29.630Z,1.00
2023-05-16T16:25:57.127Z,1.10
2023-05-16T16:28:24.680Z,0.70
2023-05-16T16:30:52.286Z,0.70
2023-05-16T16:33:19.809Z,1.42
2023-05-16T16:35:47.453Z,0.73
2023-05-16T16:38:15.015Z,0.93
2023-05-16T16:40:42.570Z,0.90
2023-05-16T16:43:12.445Z,1.08
2023-05-16T16:45:39.993Z,0.88
2023-05-16T16:48:09.124Z,2.47
2023-05-16T16:50:36.870Z,0.90
2023-05-16T16:53:04.505Z,1.17
2023-05-16T16:55:32.135Z,0.77
2023-05-16T16:57:59.660Z,1.55
2023-05-16T17:00:27.422Z,0.70
2023-05-16T17:02:55.260Z,0.70
2023-05-16T17:05:23.000Z,0.88
2023-05-16T17:07:51.687Z,0.60
2023-05-16T17:10:19.468Z,0.63
2023-05-16T17:12:49.333Z,1.20
2023-05-16T17:15:18.026Z,0.88
2023-05-16T17:17:47.045Z,0.77
2023-05-16T17:20:14.695Z,1.20
2023-05-16T17:22:42.576Z,0.88
2023-05-16T17:25:10.823Z,0.70
2023-05-16T17:27:38.379Z,1.02
2023-05-16T17:30:06.488Z,1.55
2023-05-16T17:32:34.061Z,0.90
2023-05-16T17:35:03.917Z,0.60
2023-05-16T17:37:31.664Z,0.82
2023-05-16T17:39:59.703Z,0.88
2023-05-16T17:42:27.323Z,0.98
2023-05-16T17:44:54.922Z,0.70
2023-05-16T17:47:23.212Z,0.60
2023-05-16T17:49:50.750Z,1.00
2023-05-16T17:52:20.094Z,0.93
2023-05-16T17:54:48.107Z,1.00
2023-05-16T17:57:15.763Z,0.95
2023-05-16T17:59:43.269Z,0.85
2023-05-16T18:02:15.122Z,0.73
2023-05-16T18:04:43.065Z,1.30
2023-05-16T18:07:10.667Z,1.00
2023-05-16T18:09:38.590Z,0.65
2023-05-16T18:12:06.910Z,1.63
2023-05-16T18:14:34.477Z,1.02
2023-05-16T18:17:02.085Z,1.15
2023-05-16T18:19:30.471Z,1.17
2023-05-16T18:21:58.449Z,1.15
2023-05-16T18:24:25.980Z,0.80
2023-05-16T18:26:53.529Z,0.70
2023-05-16T18:29:23.489Z,0.60
2023-05-16T18:31:51.011Z,1.25
2023-05-16T18:34:18.639Z,1.25
2023-05-16T18:36:46.223Z,1.13
2023-05-16T18:39:13.831Z,0.82
2023-05-16T18:41:43.841Z,1.00
2023-05-16T18:44:11.351Z,0.82
2023-05-16T18:46:38.894Z,0.80
2023-05-16T18:49:06.541Z,0.68
2023-05-16T18:51:34.211Z,0.73
2023-05-16T18:54:01.740Z,0.90
2023-05-16T18:56:29.262Z,1.60
2023-05-16T18:58:57.008Z,0.90
2023-05-16T19:01:25.402Z,0.70
2023-05-16T19:03:53.108Z,1.02
2023-05-16T19:06:20.662Z,1.05
2023-05-16T19:08:48.563Z,0.88
2023-05-16T19:11:17.300Z,1.85
2023-05-16T19:13:48.358Z,1.08
2023-05-16T19:16:16.237Z,1.00
2023-05-16T19:18:43.945Z,0.90
2023-05-16T19:21:13.249Z,0.85
2023-05-16T19:23:41.080Z,0.90
2023-05-16T19:26:08.701Z,1.27
2023-05-16T19:28:37.458Z,0.98
2023-05-16T19:31:05.070Z,1.63
2023-05-16T19:33:32.578Z,1.48
2023-05-16T19:36:00.370Z,1.40
2023-05-16T19:38:28.006Z,2.20
2023-05-16T19:40:55.640Z,1.00
2023-05-16T19:43:23.453Z,1.85
2023-05-16T19:45:51.177Z,1.23
2023-05-16T19:48:18.809Z,1.88
2023-05-16T19:50:46.437Z,2.75
2023-05-16T19:53:14.009Z,1.40
2023-05-16T19:55:41.525Z,1.75
2023-05-16T19:58:09.023Z,1.00
2023-05-16T20:00:36.557Z,1.35
2023-05-16T20:03:04.176Z,1.15
2023-05-16T20:05:31.824Z,1.63
2023-05-16T20:07:59.471Z,1.42
2023-05-16T20:10:27.053Z,1.52
2023-05-16T20:12:54.636Z,1.00
2023-05-16T20:15:22.192Z,1.17
2023-05-16T20:17:49.792Z,1.38
2023-05-16T20:20:17.447Z,1.40
2023-05-16T20:22:44.989Z,1.98
2023-05-16T20:25:12.767Z,1.10
2023-05-16T20:27:40.754Z,1.75
2023-05-16T20:30:08.922Z,1.45
2023-05-16T20:32:36.570Z,1.70
2023-05-16T20:35:08.926Z,2.65
2023-05-16T20:40:05.531Z,3.20
2023-05-16T20:42:33.090Z,1.63
2023-05-16T20:45:00.728Z,1.70
2023-05-16T20:47:28.701Z,2.38
2023-05-16T20:49:56.461Z,2.10
2023-05-16T20:52:24.242Z,1.50
2023-05-16T20:54:51.731Z,2.05
2023-05-16T20:57:19.294Z,2.35
2023-05-16T20:59:46.792Z,2.15
2023-05-16T21:02:14.368Z,1.45
2023-05-16T21:04:42.070Z,2.30
2023-05-16T21:07:11.268Z,3.10
2023-05-16T21:09:39.713Z,1.63
2023-05-16T21:12:07.661Z,1.95
2023-05-16T21:14:35.257Z,2.00
2023-05-16T21:17:02.787Z,2.33
2023-05-16T21:19:34.061Z,2.70
2023-05-16T21:22:03.934Z,2.17
2023-05-16T21:24:35.097Z,2.88
2023-05-16T21:27:04.016Z,2.22
2023-05-16T21:29:31.776Z,3.25
2023-05-16T21:31:59.896Z,2.50
2023-05-16T21:34:27.447Z,2.45
2023-05-16T21:36:54.984Z,3.40
2023-05-16T21:39:22.488Z,1.83
2023-05-16T21:41:49.989Z,2.25
2023-05-16T21:44:18.539Z,2.70
2023-05-16T21:46:46.104Z,2.05
2023-05-16T21:49:13.785Z,1.83
2023-05-16T21:51:41.529Z,2.13
2023-05-16T21:54:09.079Z,2.13
2023-05-16T21:56:36.675Z,3.80
2023-05-16T21:59:04.234Z,2.53
2023-05-16T22:01:31.910Z,3.00
2023-05-16T22:03:59.669Z,3.50
2023-05-16T22:06:27.395Z,3.38
2023-05-16T22:08:54.977Z,4.25
2023-05-16T22:11:22.809Z,3.03
2023-05-16T22:13:51.240Z,2.55
2023-05-16T22:16:18.972Z,2.42
2023-05-16T22:18:46.729Z,3.15
2023-05-16T22:21:16.186Z,2.60
2023-05-16T22:23:43.902Z,2.63
2023-05-16T22:26:11.454Z,3.28
2023-05-16T22:28:39.072Z,2.55
2023-05-16T22:31:06.681Z,2.70
2023-05-16T22:33:34.287Z,2.70
2023-05-16T22:36:03.097Z,3.00
2023-05-16T22:38:31.662Z,2.60
2023-05-16T22:40:59.343Z,3.35
2023-05-16T22:43:26.925Z,2.60
2023-05-16T22:45:54.452Z,4.25
2023-05-16T22:48:22.132Z,2.42
2023-05-16T22:50:49.760Z,5.05
2023-05-16T22:53:17.294Z,3.72
2023-05-16T22:55:44.974Z,3.47
2023-05-16T22:58:12.555Z,2.63
2023-05-16T23:00:40.074Z,2.63
2023-05-16T23:03:07.685Z,3.03
2023-05-16T23:05:35.726Z,2.78
2023-05-16T23:08:04.383Z,2.30
2023-05-16T23:10:32.500Z,3.20
2023-05-16T23:13:00.161Z,3.47
2023-05-16T23:15:27.977Z,2.95
2023-05-16T23:17:56.228Z,2.88
2023-05-16T23:20:24.407Z,2.85
2023-05-16T23:22:51.961Z,3.90
2023-05-16T23:25:19.507Z,3.08
2023-05-16T23:27:47.080Z,4.90
2023-05-16T23:30:14.981Z,3.67
2023-05-16T23:32:42.622Z,3.08
2023-05-16T23:35:10.571Z,4.75
2023-05-16T23:37:38.150Z,4.10
2023-05-16T23:40:06.184Z,3.33
2023-05-16T23:42:33.726Z,2.78
2023-05-16T23:45:01.584Z,3.97
2023-05-16T23:47:29.229Z,3.17
2023-05-16T23:49:57.048Z,4.03
2023-05-16T23:52:24.608Z,5.45
2023-05-16T23:54:52.161Z,5.15
2023-05-16T23:57:19.700Z,4.38
2023-05-16T23:59:47.236Z,3.80
